x

Halifax Harbour (44258) Wave Buoy

1:00pm - Wed 27th May 2015 All times are EDT. -4 hours from GMT.

  • Sig Wave height 4.3ft
  • Peak Period 7s
  • Wind
    11mph, 13mph gusts
  • Air Temp 41°f
  • Sea Pressure 1022.4mb
  • Halifax Harbour
  • Halifax Harbour

More Historic Weather Station data

Upgrade to MSW Pro to gain access to the past 30 days of data for over 8000 Wavebouys and Weather Stations around the globe.

Join Pro

Comparision Forecast

View Surf forecast
   
Wed 05/27 1:00pm 4.5ft 7s 11 13 mph 1022.4mb 41f
12:00pm 3.5ft 7s 9 11 mph 1022.8mb 40f
11:00am 3.5ft 6s 4 7 mph 1023.2mb 40f
10:00am 4ft 6s 11 13 mph 1023.1mb 40f
9:00am 4ft 6s 9
mph
1023.3mb 40f
8:00am 4ft 6s 7 9 mph 1023.1mb 40f
7:00am 4ft 7s 11 13 mph 1022.4mb 40f
6:00am 4ft 6s 9 11 mph 1022mb 40f
5:00am 4.5ft 6s 9 11 mph 1021.5mb 40f
4:00am 4.5ft 6s 11 13 mph 1021.1mb 41f
3:00am 4.5ft 6s 13
mph
1021mb 41f
2:00am 5ft 6s 18 22 mph 1021mb 43f
1:00am 5ft 6s 16 22 mph 1021.2mb 43f
12:00am 5ft 6s 20 25 mph 1020.8mb 43f
Tue 05/26 11:00pm 5ft 6s 16 18 mph 1021.1mb 41f
10:00pm 6ft 6s 20 25 mph 1020.8mb 43f
9:00pm 6ft 6s 22 25 mph 1021mb 44f
8:00pm 6ft 6s 22 27 mph 1020.6mb 44f
7:00pm 5.5ft 7s 25 31 mph 1020.3mb 45f
6:00pm 6ft 6s 27 31 mph 1020.3mb 46f
5:00pm 4.5ft 6s 22 29 mph 1020.6mb 46f
4:00pm 5ft 6s 25 29 mph 1020.6mb 46f
3:00pm 5ft 5s 20 25 mph 1021mb 46f
2:00pm 4.5ft 5s 22 25 mph 1021.3mb 46f
1:00pm 4.5ft 4s 27 31 mph 1021mb 46f
12:00pm 3.5ft 5s 18 22 mph 1022.7mb 44f
11:00am 3.5ft 4s 18 22 mph 1023mb 45f
10:00am 3.5ft 6s 18 22 mph 1023.1mb 44f
9:00am 3ft 5s 13 18 mph 1023.7mb 44f
8:00am 3ft 6s 11
mph
1024mb 43f
7:00am 3.5ft 6s 11 13 mph 1024.2mb 42f
6:00am 3.5ft 6s 11 13 mph 1023.6mb 42f
5:00am 3.5ft 6s 13 16 mph 1023.3mb 43f
4:00am 4ft 7s 11 13 mph 1022.9mb 41f
3:00am 3.5ft 6s 13 16 mph 1023mb 41f
2:00am 4ft 6s 16 18 mph 1023mb 42f
1:00am 4ft 6s 13
mph
1023.1mb 41f
12:00am 4.5ft 7s 16
mph
1022.8mb 41f
Mon 05/25 11:00pm 4.5ft 6s 16 18 mph 1022.6mb 41f
10:00pm 4.5ft 6s 16 18 mph 1022.7mb 41f
9:00pm 5ft 7s 13 16 mph 1022.8mb 42f
8:00pm 5ft 7s 16 18 mph 1022.5mb 42f
7:00pm 5ft 6s 16 18 mph 1022.3mb 43f
6:00pm 4.5ft 6s 16 18 mph 1021.8mb 43f
5:00pm 4.5ft 6s 16 18 mph 1021.3mb 44f
4:00pm 4.5ft 7s 13 16 mph 1021.4mb 44f
3:00pm 4ft 7s 16 18 mph 1021mb 44f
2:00pm 4ft 7s 13 16 mph 1021.3mb 44f
1:00pm 4ft 7s 13
mph
1021.4mb 43f
12:00pm 4ft 7s 16
mph
1021.8mb 43f
11:00am 4.5ft 7s 16 18 mph 1022mb 42f
10:00am 4ft 7s 13 18 mph 1022mb 42f
9:00am 4.5ft 7s 11 16 mph 1022mb 42f
8:00am 4ft 7s 9 13 mph 1021.9mb 43f
7:00am 4.5ft 7s 9
mph
1021.8mb 42f
6:00am 4.5ft 8s 9 11 mph 1021.4mb 42f
5:00am 5ft 8s 9 13 mph 1020.8mb 42f
4:00am 4.5ft 7s 4 11 mph 1020.1mb 41f
3:00am 4.5ft 7s 9 13 mph 1019.7mb 41f
2:00am 5ft 8s 13
mph
1019.9mb 42f
1:00am 4.5ft 7s 16 18 mph 1019.7mb 42f
12:00am 5ft 8s 13 18 mph 1019.9mb 42f
Sun 05/24 11:00pm 6ft 8s 16 18 mph 1019.7mb 41f
10:00pm 6ft 8s 18 20 mph 1019.5mb 42f
9:00pm 6ft 8s 13 18 mph 1019.3mb 42f
8:00pm 6.5ft 7s 16 18 mph 1018.7mb 42f
7:00pm 7ft 7s 20 22 mph 1018mb 44f
6:00pm 6.5ft 7s 18 22 mph 1017.7mb 44f
5:00pm 6.5ft 7s 16 20 mph 1017.5mb 44f
4:00pm 7ft 8s 18 22 mph 1017.5mb 44f
3:00pm 7ft 7s 22 27 mph 1017.4mb 44f
2:00pm 7ft 6s 25 29 mph 1017.7mb 44f
1:00pm 6.5ft 7s 22 27 mph 1018.4mb 44f
12:00pm 6ft 7s 18 20 mph 1019.1mb 43f
11:00am 5.5ft 6s 18 20 mph 1019.7mb 43f
10:00am 5ft 6s 20 25 mph 1020.2mb 44f
9:00am 4.5ft 6s 18 20 mph 1020.7mb 43f
8:00am 4.5ft 6s 16 18 mph 1021.4mb 42f
7:00am 4ft 5s 16 18 mph 1022.4mb 41f
6:00am 4.5ft 8s 16 18 mph 1022.5mb 41f
5:00am 4ft 8s 18 20 mph 1022.8mb 41f
4:00am 4.5ft 8s 18 20 mph 1022.5mb 41f
3:00am 5ft 9s 18 20 mph 1022.3mb 41f
2:00am 5ft 8s 16 20 mph 1022.5mb 41f
1:00am 5ft 9s 18 20 mph 1022.5mb 41f
12:00am 5ft 9s 18 20 mph 1022.5mb 42f
Sat 05/23 11:00pm 5ft 9s 18 22 mph 1022.3mb 42f
10:00pm 5ft 10s 18 20 mph 1021.7mb 43f
9:00pm 6ft 11s 13 16 mph 1021mb 44f
8:00pm 6ft 10s 13 16 mph 1020mb 46f
7:00pm 6ft 10s 18 25 mph 1019mb 47f